sensor_id;sensor_type;location;lat;lon;timestamp;temperature;humidity
2002;DHT22;1003;48.002;7.788;2022-08-02T00:02:05;16.80;99.90
2002;DHT22;1003;48.002;7.788;2022-08-02T00:04:32;16.70;99.90
2002;DHT22;1003;48.002;7.788;2022-08-02T00:06:59;16.80;99.90
2002;DHT22;1003;48.002;7.788;2022-08-02T00:09:27;16.80;99.90
2002;DHT22;1003;48.002;7.788;2022-08-02T00:11:54;16.90;99.90
2002;DHT22;1003;48.002;7.788;2022-08-02T00:14:21;17.00;99.90
2002;DHT22;1003;48.002;7.788;2022-08-02T00:16:48;17.10;99.90
2002;DHT22;1003;48.002;7.788;2022-08-02T00:19:16;17.10;99.90
2002;DHT22;1003;48.002;7.788;2022-08-02T00:21:43;17.10;99.90
2002;DHT22;1003;48.002;7.788;2022-08-02T00:24:10;17.20;99.90
2002;DHT22;1003;48.002;7.788;2022-08-02T00:26:38;17.30;99.90
2002;DHT22;1003;48.002;7.788;2022-08-02T00:29:05;17.40;99.90
2002;DHT22;1003;48.002;7.788;2022-08-02T00:31:32;17.40;99.90
2002;DHT22;1003;48.002;7.788;2022-08-02T00:33:59;17.50;99.90
2002;DHT22;1003;48.002;7.788;2022-08-02T00:36:28;17.40;99.90
2002;DHT22;1003;48.002;7.788;2022-08-02T00:38:55;17.60;99.90
2002;DHT22;1003;48.002;7.788;2022-08-02T00:41:22;17.50;99.90
2002;DHT22;1003;48.002;7.788;2022-08-02T00:43:50;17.40;99.90
2002;DHT22;1003;48.002;7.788;2022-08-02T00:46:19;17.60;99.90
2002;DHT22;1003;48.002;7.788;2022-08-02T00:48:47;17.50;99.90
2002;DHT22;1003;48.002;7.788;2022-08-02T00:51:15;17.60;99.90
2002;DHT22;1003;48.002;7.788;2022-08-02T00:53:44;17.70;99.90
2002;DHT22;1003;48.002;7.788;2022-08-02T00:56:11;17.80;99.90
2002;DHT22;1003;48.002;7.788;2022-08-02T00:58:38;17.60;99.90
2002;DHT22;1003;48.002;7.788;2022-08-02T01:01:05;17.70;99.90
2002;DHT22;1003;48.002;7.788;2022-08-02T01:03:32;17.60;99.90
2002;DHT22;1003;48.002;7.788;2022-08-02T01:05:59;17.30;99.90
2002;DHT22;1003;48.002;7.788;2022-08-02T01:08:27;17.50;99.90
2002;DHT22;1003;48.002;7.788;2022-08-02T01:10:55;17.50;99.90
2002;DHT22;1003;48.002;7.788;2022-08-02T01:13:22;17.30;99.90
2002;DHT22;1003;48.002;7.788;2022-08-02T01:15:54;17.30;99.90
2002;DHT22;1003;48.002;7.788;2022-08-02T01:18:30;16.90;99.90
2002;DHT22;1003;48.002;7.788;2022-08-02T01:21:25;16.90;99.90
2002;DHT22;1003;48.002;7.788;2022-08-02T01:24:11;16.80;99.90
2002;DHT22;1003;48.002;7.788;2022-08-02T01:26:49;16.70;99.90
2002;DHT22;1003;48.002;7.788;2022-08-02T01:29:27;16.60;99.90
2002;DHT22;1003;48.002;7.788;2022-08-02T01:32:04;16.50;99.90
2002;DHT22;1003;48.002;7.788;2022-08-02T01:34:38;16.40;99.90
2002;DHT22;1003;48.002;7.788;2022-08-02T01:37:15;16.30;99.90
2002;DHT22;1003;48.002;7.788;2022-08-02T01:39:47;16.40;99.90
2002;DHT22;1003;48.002;7.788;2022-08-02T01:42:20;16.30;99.90
2002;DHT22;1003;48.002;7.788;2022-08-02T01:44:52;16.30;99.90
2002;DHT22;1003;48.002;7.788;2022-08-02T01:47:25;16.30;99.90
2002;DHT22;1003;48.002;7.788;2022-08-02T01:49:57;16.30;99.90
2002;DHT22;1003;48.002;7.788;2022-08-02T01:52:29;16.10;99.90
2002;DHT22;1003;48.002;7.788;2022-08-02T01:55:02;16.10;99.90
2002;DHT22;1003;48.002;7.788;2022-08-02T01:57:35;16.20;99.90
2002;DHT22;1003;48.002;7.788;2022-08-02T02:00:08;16.30;99.90
2002;DHT22;1003;48.002;7.788;2022-08-02T02:02:43;16.20;99.90
2002;DHT22;1003;48.002;7.788;2022-08-02T02:05:15;16.20;99.90
2002;DHT22;1003;48.002;7.788;2022-08-02T02:07:45;16.20;99.90
2002;DHT22;1003;48.002;7.788;2022-08-02T02:10:21;16.20;99.90
2002;DHT22;1003;48.002;7.788;2022-08-02T02:12:54;16.20;99.90
2002;DHT22;1003;48.002;7.788;2022-08-02T02:15:26;16.30;99.90
2002;DHT22;1003;48.002;7.788;2022-08-02T02:17:56;16.20;99.90
2002;DHT22;1003;48.002;7.788;2022-08-02T02:20:24;16.10;99.90
2002;DHT22;1003;48.002;7.788;2022-08-02T02:22:51;16.10;99.90
2002;DHT22;1003;48.002;7.788;2022-08-02T02:25:20;16.30;99.90
2002;DHT22;1003;48.002;7.788;2022-08-02T02:27:53;16.10;99.90
2002;DHT22;1003;48.002;7.788;2022-08-02T02:30:26;16.20;99.90
2002;DHT22;1003;48.002;7.788;2022-08-02T02:32:57;16.30;99.90
2002;DHT22;1003;48.002;7.788;2022-08-02T02:35:28;16.20;99.90
2002;DHT22;1003;48.002;7.788;2022-08-02T02:38:03;16.30;99.90
2002;DHT22;1003;48.002;7.788;2022-08-02T02:40:32;16.30;99.90
2002;DHT22;1003;48.002;7.788;2022-08-02T02:43:01;16.30;99.90
2002;DHT22;1003;48.002;7.788;2022-08-02T02:45:31;16.30;99.90
2002;DHT22;1003;48.002;7.788;2022-08-02T02:48:01;16.30;99.90
2002;DHT22;1003;48.002;7.788;2022-08-02T02:50:31;16.30;99.90
2002;DHT22;1003;48.002;7.788;2022-08-02T02:53:00;16.20;99.90
2002;DHT22;1003;48.002;7.788;2022-08-02T02:55:28;16.30;99.90
2002;DHT22;1003;48.002;7.788;2022-08-02T02:57:56;16.30;99.90
2002;DHT22;1003;48.002;7.788;2022-08-02T03:00:24;16.20;99.90
2002;DHT22;1003;48.002;7.788;2022-08-02T03:03:08;16.30;99.90
2002;DHT22;1003;48.002;7.788;2022-08-02T03:05:35;16.40;99.90
2002;DHT22;1003;48.002;7.788;2022-08-02T03:08:03;16.40;99.90
2002;DHT22;1003;48.002;7.788;2022-08-02T03:10:30;16.50;99.90
2002;DHT22;1003;48.002;7.788;2022-08-02T03:12:59;16.30;99.90
2002;DHT22;1003;48.002;7.788;2022-08-02T03:15:27;16.40;99.90
2002;DHT22;1003;48.002;7.788;2022-08-02T03:17:54;16.10;99.90
2002;DHT22;1003;48.002;7.788;2022-08-02T03:20:23;16.30;99.90
2002;DHT22;1003;48.002;7.788;2022-08-02T03:22:50;16.10;99.90
2002;DHT22;1003;48.002;7.788;2022-08-02T03:25:17;16.10;99.90
2002;DHT22;1003;48.002;7.788;2022-08-02T03:27:45;16.00;99.90
2002;DHT22;1003;48.002;7.788;2022-08-02T03:30:13;16.00;99.90
2002;DHT22;1003;48.002;7.788;2022-08-02T03:32:43;16.00;99.90
2002;DHT22;1003;48.002;7.788;2022-08-02T03:35:14;16.00;99.90
2002;DHT22;1003;48.002;7.788;2022-08-02T03:37:46;16.10;99.90
2002;DHT22;1003;48.002;7.788;2022-08-02T03:40:14;15.90;99.90
2002;DHT22;1003;48.002;7.788;2022-08-02T03:42:42;15.90;99.90
2002;DHT22;1003;48.002;7.788;2022-08-02T03:45:11;16.00;99.90
2002;DHT22;1003;48.002;7.788;2022-08-02T03:47:39;16.00;99.90
2002;DHT22;1003;48.002;7.788;2022-08-02T03:50:10;16.00;99.90
2002;DHT22;1003;48.002;7.788;2022-08-02T03:52:40;16.00;99.90
2002;DHT22;1003;48.002;7.788;2022-08-02T03:55:12;16.10;99.90
2002;DHT22;1003;48.002;7.788;2022-08-02T03:57:40;16.10;99.90
2002;DHT22;1003;48.002;7.788;2022-08-02T04:00:10;16.10;99.90
2002;DHT22;1003;48.002;7.788;2022-08-02T04:02:39;16.00;99.90
2002;DHT22;1003;48.002;7.788;2022-08-02T04:05:06;16.00;99.90
2002;DHT22;1003;48.002;7.788;2022-08-02T04:07:34;16.00;99.90
2002;DHT22;1003;48.002;7.788;2022-08-02T04:10:01;16.00;99.90
2002;DHT22;1003;48.002;7.788;2022-08-02T04:12:30;16.00;99.90
2002;DHT22;1003;48.002;7.788;2022-08-02T04:14:57;16.00;99.90
2002;DHT22;1003;48.002;7.788;2022-08-02T04:17:27;16.00;99.90
2002;DHT22;1003;48.002;7.788;2022-08-02T04:20:03;16.10;99.90
2002;DHT22;1003;48.002;7.788;2022-08-02T04:22:36;16.20;99.90
2002;DHT22;1003;48.002;7.788;2022-08-02T04:25:07;16.10;99.90
2002;DHT22;1003;48.002;7.788;2022-08-02T04:27:37;16.20;99.90
2002;DHT22;1003;48.002;7.788;2022-08-02T04:30:07;16.30;99.90
2002;DHT22;1003;48.002;7.788;2022-08-02T04:32:36;16.40;99.90
2002;DHT22;1003;48.002;7.788;2022-08-02T04:35:04;16.50;99.90
2002;DHT22;1003;48.002;7.788;2022-08-02T04:37:33;16.70;99.90
2002;DHT22;1003;48.002;7.788;2022-08-02T04:40:00;16.60;99.90
2002;DHT22;1003;48.002;7.788;2022-08-02T04:42:27;16.70;99.90
2002;DHT22;1003;48.002;7.788;2022-08-02T04:44:56;16.80;99.90
2002;DHT22;1003;48.002;7.788;2022-08-02T04:47:23;16.90;99.90
2002;DHT22;1003;48.002;7.788;2022-08-02T04:49:50;16.90;99.90
2002;DHT22;1003;48.002;7.788;2022-08-02T04:52:17;17.20;99.90
2002;DHT22;1003;48.002;7.788;2022-08-02T04:54:44;17.00;99.90
2002;DHT22;1003;48.002;7.788;2022-08-02T04:57:11;17.50;99.90
2002;DHT22;1003;48.002;7.788;2022-08-02T04:59:57;17.60;99.90
2002;DHT22;1003;48.002;7.788;2022-08-02T05:02:24;17.60;99.90
2002;DHT22;1003;48.002;7.788;2022-08-02T05:04:51;17.80;99.90
2002;DHT22;1003;48.002;7.788;2022-08-02T05:07:18;18.00;99.90
2002;DHT22;1003;48.002;7.788;2022-08-02T05:09:46;18.30;99.90
2002;DHT22;1003;48.002;7.788;2022-08-02T05:12:13;18.40;99.90
2002;DHT22;1003;48.002;7.788;2022-08-02T05:14:40;18.20;99.90
2002;DHT22;1003;48.002;7.788;2022-08-02T05:17:08;18.70;99.90
2002;DHT22;1003;48.002;7.788;2022-08-02T05:19:35;18.60;99.90
2002;DHT22;1003;48.002;7.788;2022-08-02T05:22:02;18.60;99.90
2002;DHT22;1003;48.002;7.788;2022-08-02T05:24:29;18.90;99.90
2002;DHT22;1003;48.002;7.788;2022-08-02T05:26:56;18.70;99.90
2002;DHT22;1003;48.002;7.788;2022-08-02T05:29:23;19.10;99.90
2002;DHT22;1003;48.002;7.788;2022-08-02T05:31:50;19.80;99.90
2002;DHT22;1003;48.002;7.788;2022-08-02T05:34:20;20.30;99.90
2002;DHT22;1003;48.002;7.788;2022-08-02T05:36:47;20.60;99.90
2002;DHT22;1003;48.002;7.788;2022-08-02T05:39:14;20.80;99.90
2002;DHT22;1003;48.002;7.788;2022-08-02T05:41:41;20.90;99.90
2002;DHT22;1003;48.002;7.788;2022-08-02T05:44:08;21.40;99.90
2002;DHT22;1003;48.002;7.788;2022-08-02T05:46:35;21.30;99.90
2002;DHT22;1003;48.002;7.788;2022-08-02T05:49:03;21.00;99.90
2002;DHT22;1003;48.002;7.788;2022-08-02T05:51:36;20.50;99.90
2002;DHT22;1003;48.002;7.788;2022-08-02T05:54:11;20.90;99.90
2002;DHT22;1003;48.002;7.788;2022-08-02T05:56:45;20.60;99.90
2002;DHT22;1003;48.002;7.788;2022-08-02T05:59:25;20.80;99.90
2002;DHT22;1003;48.002;7.788;2022-08-02T06:02:02;21.00;99.90
2002;DHT22;1003;48.002;7.788;2022-08-02T06:04:33;21.00;99.90
2002;DHT22;1003;48.002;7.788;2022-08-02T06:07:15;21.30;99.90
2002;DHT22;1003;48.002;7.788;2022-08-02T06:09:46;21.40;99.90
2002;DHT22;1003;48.002;7.788;2022-08-02T06:12:16;21.10;99.90
2002;DHT22;1003;48.002;7.788;2022-08-02T06:14:45;21.70;99.90
2002;DHT22;1003;48.002;7.788;2022-08-02T06:17:13;22.10;99.90
2002;DHT22;1003;48.002;7.788;2022-08-02T06:19:41;21.90;99.90
2002;DHT22;1003;48.002;7.788;2022-08-02T06:22:09;22.10;99.90
2002;DHT22;1003;48.002;7.788;2022-08-02T06:24:45;21.90;99.90
2002;DHT22;1003;48.002;7.788;2022-08-02T06:27:15;21.80;99.90
2002;DHT22;1003;48.002;7.788;2022-08-02T06:29:47;21.90;99.90
2002;DHT22;1003;48.002;7.788;2022-08-02T06:32:17;22.40;99.90
2002;DHT22;1003;48.002;7.788;2022-08-02T06:34:44;23.50;99.90
2002;DHT22;1003;48.002;7.788;2022-08-02T06:37:16;24.20;99.90
2002;DHT22;1003;48.002;7.788;2022-08-02T06:39:58;25.20;99.90
2002;DHT22;1003;48.002;7.788;2022-08-02T06:42:44;26.20;99.90
2002;DHT22;1003;48.002;7.788;2022-08-02T06:45:16;26.80;99.90
2002;DHT22;1003;48.002;7.788;2022-08-02T06:47:44;26.90;99.90
2002;DHT22;1003;48.002;7.788;2022-08-02T06:50:11;26.30;99.90
2002;DHT22;1003;48.002;7.788;2022-08-02T06:52:38;26.90;99.90
2002;DHT22;1003;48.002;7.788;2022-08-02T06:55:08;26.50;99.90
2002;DHT22;1003;48.002;7.788;2022-08-02T06:57:36;26.40;99.90
2002;DHT22;1003;48.002;7.788;2022-08-02T07:00:04;26.90;99.90
2002;DHT22;1003;48.002;7.788;2022-08-02T07:02:34;27.00;99.90
2002;DHT22;1003;48.002;7.788;2022-08-02T07:05:03;27.10;99.90
2002;DHT22;1003;48.002;7.788;2022-08-02T07:07:31;27.40;99.90
2002;DHT22;1003;48.002;7.788;2022-08-02T07:09:58;27.50;99.90
2002;DHT22;1003;48.002;7.788;2022-08-02T07:12:28;27.40;99.90
2002;DHT22;1003;48.002;7.788;2022-08-02T07:14:56;27.00;99.90
2002;DHT22;1003;48.002;7.788;2022-08-02T07:17:23;27.20;99.90
2002;DHT22;1003;48.002;7.788;2022-08-02T07:19:51;27.30;99.90
2002;DHT22;1003;48.002;7.788;2022-08-02T07:22:18;27.30;99.90
2002;DHT22;1003;48.002;7.788;2022-08-02T07:24:48;27.20;99.90
2002;DHT22;1003;48.002;7.788;2022-08-02T07:27:15;27.30;99.90
2002;DHT22;1003;48.002;7.788;2022-08-02T07:29:44;27.30;99.90
2002;DHT22;1003;48.002;7.788;2022-08-02T07:32:11;26.80;99.90
2002;DHT22;1003;48.002;7.788;2022-08-02T07:34:38;26.50;99.90
2002;DHT22;1003;48.002;7.788;2022-08-02T07:37:05;26.40;99.90
2002;DHT22;1003;48.002;7.788;2022-08-02T07:39:33;26.10;99.90
2002;DHT22;1003;48.002;7.788;2022-08-02T07:42:00;26.00;99.90
2002;DHT22;1003;48.002;7.788;2022-08-02T07:44:27;26.20;99.90
2002;DHT22;1003;48.002;7.788;2022-08-02T07:47:00;26.50;99.90
2002;DHT22;1003;48.002;7.788;2022-08-02T07:49:27;25.90;99.90
2002;DHT22;1003;48.002;7.788;2022-08-02T07:51:55;26.30;99.90
2002;DHT22;1003;48.002;7.788;2022-08-02T07:54:23;26.10;99.90
2002;DHT22;1003;48.002;7.788;2022-08-02T07:56:50;26.20;99.90
2002;DHT22;1003;48.002;7.788;2022-08-02T07:59:18;26.40;99.90
2002;DHT22;1003;48.002;7.788;2022-08-02T08:01:47;26.70;99.90
2002;DHT22;1003;48.002;7.788;2022-08-02T08:04:17;26.90;99.90
2002;DHT22;1003;48.002;7.788;2022-08-02T08:06:45;26.30;99.90
2002;DHT22;1003;48.002;7.788;2022-08-02T08:09:14;27.10;99.90
2002;DHT22;1003;48.002;7.788;2022-08-02T08:11:41;27.10;99.90
2002;DHT22;1003;48.002;7.788;2022-08-02T08:14:08;27.40;99.90
2002;DHT22;1003;48.002;7.788;2022-08-02T08:16:35;27.60;99.90
2002;DHT22;1003;48.002;7.788;2022-08-02T08:19:03;27.90;99.90
2002;DHT22;1003;48.002;7.788;2022-08-02T08:21:31;27.40;99.90
2002;DHT22;1003;48.002;7.788;2022-08-02T08:24:00;27.50;99.90
2002;DHT22;1003;48.002;7.788;2022-08-02T08:26:29;27.00;99.90
2002;DHT22;1003;48.002;7.788;2022-08-02T08:28:58;27.30;99.90
2002;DHT22;1003;48.002;7.788;2022-08-02T08:31:26;26.90;99.90
2002;DHT22;1003;48.002;7.788;2022-08-02T08:33:53;27.20;99.90
2002;DHT22;1003;48.002;7.788;2022-08-02T08:36:21;26.80;99.90
2002;DHT22;1003;48.002;7.788;2022-08-02T08:38:50;26.40;99.90
2002;DHT22;1003;48.002;7.788;2022-08-02T08:41:18;25.50;99.90
2002;DHT22;1003;48.002;7.788;2022-08-02T08:43:46;25.40;99.90
2002;DHT22;1003;48.002;7.788;2022-08-02T08:46:19;26.10;99.90
2002;DHT22;1003;48.002;7.788;2022-08-02T08:48:53;26.00;99.90
2002;DHT22;1003;48.002;7.788;2022-08-02T08:51:30;26.00;99.90
2002;DHT22;1003;48.002;7.788;2022-08-02T08:54:05;25.80;99.90
2002;DHT22;1003;48.002;7.788;2022-08-02T08:56:36;26.50;99.90
2002;DHT22;1003;48.002;7.788;2022-08-02T08:59:03;26.70;99.90
2002;DHT22;1003;48.002;7.788;2022-08-02T09:01:31;26.30;99.90
2002;DHT22;1003;48.002;7.788;2022-08-02T09:03:58;26.40;99.90
2002;DHT22;1003;48.002;7.788;2022-08-02T09:06:26;26.20;99.90
2002;DHT22;1003;48.002;7.788;2022-08-02T09:08:53;26.20;99.90
2002;DHT22;1003;48.002;7.788;2022-08-02T09:11:24;26.40;99.90
2002;DHT22;1003;48.002;7.788;2022-08-02T09:13:53;25.90;99.90
2002;DHT22;1003;48.002;7.788;2022-08-02T09:16:32;26.20;99.90
2002;DHT22;1003;48.002;7.788;2022-08-02T09:19:15;26.50;99.90
2002;DHT22;1003;48.002;7.788;2022-08-02T09:21:45;26.50;99.90
2002;DHT22;1003;48.002;7.788;2022-08-02T09:24:18;26.50;99.90
2002;DHT22;1003;48.002;7.788;2022-08-02T09:26:48;26.70;99.90
2002;DHT22;1003;48.002;7.788;2022-08-02T09:29:18;26.80;99.90
2002;DHT22;1003;48.002;7.788;2022-08-02T09:31:48;26.80;99.90
2002;DHT22;1003;48.002;7.788;2022-08-02T09:34:16;26.50;99.90
2002;DHT22;1003;48.002;7.788;2022-08-02T09:36:45;26.40;99.90
2002;DHT22;1003;48.002;7.788;2022-08-02T09:39:14;26.20;99.90
2002;DHT22;1003;48.002;7.788;2022-08-02T09:41:43;26.00;99.90
2002;DHT22;1003;48.002;7.788;2022-08-02T09:44:13;25.80;99.90
2002;DHT22;1003;48.002;7.788;2022-08-02T09:46:42;25.70;99.90
2002;DHT22;1003;48.002;7.788;2022-08-02T09:49:11;25.70;99.90
2002;DHT22;1003;48.002;7.788;2022-08-02T09:51:47;25.70;99.90
2002;DHT22;1003;48.002;7.788;2022-08-02T09:54:17;25.70;99.90
2002;DHT22;1003;48.002;7.788;2022-08-02T09:56:49;25.70;99.90
2002;DHT22;1003;48.002;7.788;2022-08-02T09:59:21;25.80;99.90
2002;DHT22;1003;48.002;7.788;2022-08-02T10:01:50;25.80;99.90
2002;DHT22;1003;48.002;7.788;2022-08-02T10:04:20;25.90;99.90
2002;DHT22;1003;48.002;7.788;2022-08-02T10:06:49;25.70;99.90
2002;DHT22;1003;48.002;7.788;2022-08-02T10:09:16;25.90;99.90
2002;DHT22;1003;48.002;7.788;2022-08-02T10:11:45;25.80;99.90
2002;DHT22;1003;48.002;7.788;2022-08-02T10:14:14;26.10;99.90
2002;DHT22;1003;48.002;7.788;2022-08-02T10:16:43;26.10;99.90
2002;DHT22;1003;48.002;7.788;2022-08-02T10:19:10;26.30;99.90
2002;DHT22;1003;48.002;7.788;2022-08-02T10:21:43;26.20;99.90
2002;DHT22;1003;48.002;7.788;2022-08-02T10:24:13;26.30;99.90
2002;DHT22;1003;48.002;7.788;2022-08-02T10:26:44;26.20;99.90
2002;DHT22;1003;48.002;7.788;2022-08-02T10:29:15;26.60;99.90
2002;DHT22;1003;48.002;7.788;2022-08-02T10:31:53;26.30;99.90
2002;DHT22;1003;48.002;7.788;2022-08-02T10:34:27;26.10;99.90
2002;DHT22;1003;48.002;7.788;2022-08-02T10:37:00;26.10;99.90
2002;DHT22;1003;48.002;7.788;2022-08-02T10:39:37;26.20;99.90
2002;DHT22;1003;48.002;7.788;2022-08-02T10:42:05;26.00;99.90
2002;DHT22;1003;48.002;7.788;2022-08-02T10:44:34;25.80;99.90
2002;DHT22;1003;48.002;7.788;2022-08-02T10:47:21;26.10;99.90
2002;DHT22;1003;48.002;7.788;2022-08-02T10:49:51;26.20;99.90
2002;DHT22;1003;48.002;7.788;2022-08-02T10:52:20;26.60;99.90
2002;DHT22;1003;48.002;7.788;2022-08-02T10:54:52;26.60;99.90
2002;DHT22;1003;48.002;7.788;2022-08-02T10:57:23;26.60;99.90
2002;DHT22;1003;48.002;7.788;2022-08-02T10:59:54;26.50;99.90
2002;DHT22;1003;48.002;7.788;2022-08-02T11:02:37;26.60;99.90
2002;DHT22;1003;48.002;7.788;2022-08-02T11:05:10;26.50;99.90
2002;DHT22;1003;48.002;7.788;2022-08-02T11:07:42;26.40;99.90
2002;DHT22;1003;48.002;7.788;2022-08-02T11:10:34;26.50;99.90
2002;DHT22;1003;48.002;7.788;2022-08-02T11:13:05;27.00;99.90
2002;DHT22;1003;48.002;7.788;2022-08-02T11:15:52;26.80;99.90
2002;DHT22;1003;48.002;7.788;2022-08-02T11:19:03;26.90;99.90
2002;DHT22;1003;48.002;7.788;2022-08-02T11:21:32;26.70;99.90
2002;DHT22;1003;48.002;7.788;2022-08-02T11:24:26;27.10;99.90
2002;DHT22;1003;48.002;7.788;2022-08-02T11:26:56;27.20;99.90
2002;DHT22;1003;48.002;7.788;2022-08-02T11:29:35;27.10;99.90
2002;DHT22;1003;48.002;7.788;2022-08-02T11:32:05;27.00;99.90
2002;DHT22;1003;48.002;7.788;2022-08-02T11:34:35;27.20;99.90
2002;DHT22;1003;48.002;7.788;2022-08-02T11:37:04;27.40;99.90
2002;DHT22;1003;48.002;7.788;2022-08-02T11:39:32;27.40;99.90
2002;DHT22;1003;48.002;7.788;2022-08-02T11:42:00;27.20;99.90
2002;DHT22;1003;48.002;7.788;2022-08-02T11:44:28;27.10;99.90
2002;DHT22;1003;48.002;7.788;2022-08-02T11:47:04;27.20;99.90
2002;DHT22;1003;48.002;7.788;2022-08-02T11:49:32;27.40;99.90
2002;DHT22;1003;48.002;7.788;2022-08-02T11:52:02;27.50;99.90
2002;DHT22;1003;48.002;7.788;2022-08-02T11:54:33;27.50;99.90
2002;DHT22;1003;48.002;7.788;2022-08-02T11:57:15;27.30;99.90
2002;DHT22;1003;48.002;7.788;2022-08-02T11:59:46;27.50;99.90
2002;DHT22;1003;48.002;7.788;2022-08-02T12:02:15;27.60;99.90
2002;DHT22;1003;48.002;7.788;2022-08-02T12:04:43;27.50;99.90
2002;DHT22;1003;48.002;7.788;2022-08-02T12:07:25;27.90;99.90
2002;DHT22;1003;48.002;7.788;2022-08-02T12:09:53;28.00;99.90
2002;DHT22;1003;48.002;7.788;2022-08-02T12:12:25;28.20;99.90
2002;DHT22;1003;48.002;7.788;2022-08-02T12:14:53;28.50;99.90
2002;DHT22;1003;48.002;7.788;2022-08-02T12:17:22;28.50;99.90
2002;DHT22;1003;48.002;7.788;2022-08-02T12:20:07;28.40;99.90
2002;DHT22;1003;48.002;7.788;2022-08-02T12:22:36;28.30;99.90
2002;DHT22;1003;48.002;7.788;2022-08-02T12:25:15;28.40;99.90
2002;DHT22;1003;48.002;7.788;2022-08-02T12:27:44;28.50;99.90
2002;DHT22;1003;48.002;7.788;2022-08-02T12:30:13;28.30;99.90
2002;DHT22;1003;48.002;7.788;2022-08-02T12:32:43;28.30;99.90
2002;DHT22;1003;48.002;7.788;2022-08-02T12:35:12;28.60;99.90
2002;DHT22;1003;48.002;7.788;2022-08-02T12:37:43;28.30;99.90
2002;DHT22;1003;48.002;7.788;2022-08-02T12:40:20;28.40;99.90
2002;DHT22;1003;48.002;7.788;2022-08-02T12:42:51;28.20;99.90
2002;DHT22;1003;48.002;7.788;2022-08-02T12:45:19;28.40;99.90
2002;DHT22;1003;48.002;7.788;2022-08-02T12:47:49;28.50;99.90
2002;DHT22;1003;48.002;7.788;2022-08-02T12:50:23;28.70;99.90
2002;DHT22;1003;48.002;7.788;2022-08-02T12:53:05;28.80;99.90
2002;DHT22;1003;48.002;7.788;2022-08-02T12:55:34;29.00;99.90
2002;DHT22;1003;48.002;7.788;2022-08-02T12:58:06;28.80;99.90
2002;DHT22;1003;48.002;7.788;2022-08-02T13:00:34;28.80;99.90
2002;DHT22;1003;48.002;7.788;2022-08-02T13:03:03;28.90;99.90
2002;DHT22;1003;48.002;7.788;2022-08-02T13:05:34;29.00;99.90
2002;DHT22;1003;48.002;7.788;2022-08-02T13:08:03;29.20;99.90
2002;DHT22;1003;48.002;7.788;2022-08-02T13:10:31;29.20;99.90
2002;DHT22;1003;48.002;7.788;2022-08-02T13:12:58;29.30;99.90
2002;DHT22;1003;48.002;7.788;2022-08-02T13:15:27;29.40;99.90
2002;DHT22;1003;48.002;7.788;2022-08-02T13:17:55;29.10;99.90
2002;DHT22;1003;48.002;7.788;2022-08-02T13:20:23;29.00;99.90
2002;DHT22;1003;48.002;7.788;2022-08-02T13:22:52;29.20;99.90
2002;DHT22;1003;48.002;7.788;2022-08-02T13:25:21;29.50;99.90
2002;DHT22;1003;48.002;7.788;2022-08-02T13:27:49;29.30;99.90
2002;DHT22;1003;48.002;7.788;2022-08-02T13:30:16;29.30;99.90
2002;DHT22;1003;48.002;7.788;2022-08-02T13:32:44;29.40;99.90
2002;DHT22;1003;48.002;7.788;2022-08-02T13:35:12;29.60;99.90
2002;DHT22;1003;48.002;7.788;2022-08-02T13:37:39;29.40;99.90
2002;DHT22;1003;48.002;7.788;2022-08-02T13:40:08;29.30;99.90
2002;DHT22;1003;48.002;7.788;2022-08-02T13:42:37;29.20;99.90
2002;DHT22;1003;48.002;7.788;2022-08-02T13:45:05;29.30;99.90
2002;DHT22;1003;48.002;7.788;2022-08-02T13:47:33;29.50;99.90
2002;DHT22;1003;48.002;7.788;2022-08-02T13:50:00;29.50;99.90
2002;DHT22;1003;48.002;7.788;2022-08-02T13:52:27;29.60;99.90
2002;DHT22;1003;48.002;7.788;2022-08-02T13:54:54;29.60;99.90
2002;DHT22;1003;48.002;7.788;2022-08-02T13:57:21;29.50;99.90
2002;DHT22;1003;48.002;7.788;2022-08-02T13:59:50;29.40;99.90
2002;DHT22;1003;48.002;7.788;2022-08-02T14:02:17;29.60;99.90
2002;DHT22;1003;48.002;7.788;2022-08-02T14:04:44;29.30;99.90
2002;DHT22;1003;48.002;7.788;2022-08-02T14:07:11;29.30;99.90
2002;DHT22;1003;48.002;7.788;2022-08-02T14:09:40;29.50;99.90
2002;DHT22;1003;48.002;7.788;2022-08-02T14:12:08;29.60;99.90
2002;DHT22;1003;48.002;7.788;2022-08-02T14:14:35;29.40;99.90
2002;DHT22;1003;48.002;7.788;2022-08-02T14:17:04;29.30;99.90
2002;DHT22;1003;48.002;7.788;2022-08-02T14:19:31;29.30;99.90
2002;DHT22;1003;48.002;7.788;2022-08-02T14:21:58;29.20;99.90
2002;DHT22;1003;48.002;7.788;2022-08-02T14:24:25;29.30;99.90
2002;DHT22;1003;48.002;7.788;2022-08-02T14:26:52;29.30;99.90
2002;DHT22;1003;48.002;7.788;2022-08-02T14:29:19;29.10;99.90
2002;DHT22;1003;48.002;7.788;2022-08-02T14:31:47;29.30;99.90
2002;DHT22;1003;48.002;7.788;2022-08-02T14:34:16;29.30;99.90
2002;DHT22;1003;48.002;7.788;2022-08-02T14:36:43;29.30;99.90
2002;DHT22;1003;48.002;7.788;2022-08-02T14:39:10;29.40;99.90
2002;DHT22;1003;48.002;7.788;2022-08-02T14:41:38;29.20;99.90
2002;DHT22;1003;48.002;7.788;2022-08-02T14:44:05;29.30;99.90
2002;DHT22;1003;48.002;7.788;2022-08-02T14:46:34;29.20;99.90
2002;DHT22;1003;48.002;7.788;2022-08-02T14:49:03;29.10;99.90
2002;DHT22;1003;48.002;7.788;2022-08-02T14:51:34;29.20;99.90
2002;DHT22;1003;48.002;7.788;2022-08-02T14:54:03;29.20;99.90
2002;DHT22;1003;48.002;7.788;2022-08-02T14:56:32;29.20;99.90
2002;DHT22;1003;48.002;7.788;2022-08-02T14:58:59;29.10;99.90
2002;DHT22;1003;48.002;7.788;2022-08-02T15:01:26;29.20;99.90
2002;DHT22;1003;48.002;7.788;2022-08-02T15:03:54;29.30;99.90
2002;DHT22;1003;48.002;7.788;2022-08-02T15:06:21;29.50;99.90
2002;DHT22;1003;48.002;7.788;2022-08-02T15:08:49;29.50;99.90
2002;DHT22;1003;48.002;7.788;2022-08-02T15:11:16;29.50;99.90
2002;DHT22;1003;48.002;7.788;2022-08-02T15:13:43;29.70;99.90
2002;DHT22;1003;48.002;7.788;2022-08-02T15:16:11;29.70;99.90
2002;DHT22;1003;48.002;7.788;2022-08-02T15:18:38;29.70;99.90
2002;DHT22;1003;48.002;7.788;2022-08-02T15:21:05;29.80;99.90
2002;DHT22;1003;48.002;7.788;2022-08-02T15:23:32;29.70;99.90
2002;DHT22;1003;48.002;7.788;2022-08-02T15:26:01;29.60;99.90
2002;DHT22;1003;48.002;7.788;2022-08-02T15:28:28;29.40;99.90
2002;DHT22;1003;48.002;7.788;2022-08-02T15:30:56;29.30;99.90
2002;DHT22;1003;48.002;7.788;2022-08-02T15:33:23;29.30;99.90
2002;DHT22;1003;48.002;7.788;2022-08-02T15:35:52;29.40;99.90
2002;DHT22;1003;48.002;7.788;2022-08-02T15:38:19;29.60;99.90
2002;DHT22;1003;48.002;7.788;2022-08-02T15:40:47;29.50;99.90
2002;DHT22;1003;48.002;7.788;2022-08-02T15:43:16;29.50;99.90
2002;DHT22;1003;48.002;7.788;2022-08-02T15:45:43;29.40;99.90
2002;DHT22;1003;48.002;7.788;2022-08-02T15:48:10;29.40;99.90
2002;DHT22;1003;48.002;7.788;2022-08-02T15:50:38;29.50;99.90
2002;DHT22;1003;48.002;7.788;2022-08-02T15:53:06;29.30;99.90
2002;DHT22;1003;48.002;7.788;2022-08-02T15:55:33;29.20;99.90
2002;DHT22;1003;48.002;7.788;2022-08-02T15:58:00;29.20;99.90
2002;DHT22;1003;48.002;7.788;2022-08-02T16:00:28;29.20;99.90
2002;DHT22;1003;48.002;7.788;2022-08-02T16:02:56;29.40;99.90
2002;DHT22;1003;48.002;7.788;2022-08-02T16:05:23;29.70;99.90
2002;DHT22;1003;48.002;7.788;2022-08-02T16:07:50;29.60;99.90
2002;DHT22;1003;48.002;7.788;2022-08-02T16:10:18;29.40;99.90
2002;DHT22;1003;48.002;7.788;2022-08-02T16:12:45;29.40;99.90
2002;DHT22;1003;48.002;7.788;2022-08-02T16:15:12;29.60;99.90
2002;DHT22;1003;48.002;7.788;2022-08-02T16:17:41;29.60;99.90
2002;DHT22;1003;48.002;7.788;2022-08-02T16:20:09;29.70;99.90